Time;durP1;ratioP1;P1;durP2;ratioP2;P2;SDS_P1;SDS_P2;PMS_P1;PMS_P2;Temp;Humidity;BMP_temperature;BMP_pressure;BME280_temperature;BME280_humidity;BME280_pressure;Samples;Min_cycle;Max_cycle;Signal;HPM_P1;HPM_P2
2022/01/22 00:01:36;;;;;;;22.30;10.48;;;8.20;99.90;;;8.32;85.10;103311.59;5071851;28;20102;-62
2022/01/22 00:04:06;;;;;;;25.30;10.02;;;8.20;99.90;;;8.41;84.58;103319.88;5070723;28;20049;-63
2022/01/22 00:06:34;;;;;;;21.05;10.60;;;8.20;99.90;;;8.39;84.94;103321.56;5072061;28;20040;-62
2022/01/22 00:09:05;;;;;;;27.05;10.07;;;8.20;99.90;;;8.37;84.88;103295.94;5071758;28;20106;-61
2022/01/22 00:11:37;;;;;;;24.30;10.70;;;8.30;99.90;;;8.57;85.21;103317.09;5071921;28;20473;-62
2022/01/22 00:14:25;;;;;;;31.20;10.40;;;8.30;99.90;;;8.55;85.13;103346.88;5070937;28;20356;-61
2022/01/22 00:16:58;;;;;;;25.65;11.30;;;8.30;99.90;;;8.46;85.59;103317.47;5071903;28;20048;-62
2022/01/22 00:19:28;;;;;;;28.45;11.60;;;8.20;99.90;;;8.55;85.34;103310.84;5071549;28;20053;-60
2022/01/22 00:21:58;;;;;;;29.63;10.88;;;8.30;99.90;;;8.52;86.18;103307.16;5071397;28;20549;-62
2022/01/22 00:24:35;;;;;;;23.30;11.27;;;8.30;99.90;;;8.62;85.74;103304.06;5070718;28;20044;-63
2022/01/22 00:27:05;;;;;;;28.52;10.63;;;8.40;99.90;;;8.63;85.53;103311.16;5071825;28;20049;-65
2022/01/22 00:29:33;;;;;;;23.88;10.10;;;8.40;99.90;;;8.63;86.16;103306.78;5071661;28;20041;-60
2022/01/22 00:32:05;;;;;;;25.98;10.10;;;8.40;99.90;;;8.70;85.95;103303.56;5086990;28;20051;-61
2022/01/22 00:34:34;;;;;;;27.75;10.52;;;8.50;99.90;;;8.63;85.90;103301.50;5071554;28;20083;-61
2022/01/22 00:37:03;;;;;;;25.75;10.82;;;8.40;99.90;;;8.67;86.42;103306.06;5071514;28;20090;-61
2022/01/22 00:39:33;;;;;;;22.30;9.30;;;8.40;99.90;;;8.68;85.85;103299.97;5071445;28;20075;-61
2022/01/22 00:42:08;;;;;;;31.77;10.57;;;8.50;99.90;;;8.62;86.33;103294.44;5071436;28;20060;-61
2022/01/22 00:44:36;;;;;;;24.52;9.20;;;8.40;99.90;;;8.77;86.29;103296.78;5071200;28;20059;-61
2022/01/22 00:47:06;;;;;;;22.10;9.02;;;8.50;99.90;;;8.71;86.10;103286.88;5070056;28;20041;-61
2022/01/22 00:49:36;;;;;;;27.70;10.15;;;8.50;99.90;;;8.63;86.11;103290.06;5071457;28;20127;-61
2022/01/22 00:52:05;;;;;;;26.27;9.10;;;8.50;99.90;;;8.65;86.74;103289.28;5070922;28;20382;-61
2022/01/22 00:54:35;;;;;;;25.70;10.35;;;8.40;99.90;;;8.64;86.36;103291.84;5071309;28;20041;-61
2022/01/22 00:57:04;;;;;;;20.55;9.88;;;8.50;99.90;;;8.47;86.76;103266.50;5070990;28;20551;-61
2022/01/22 00:59:33;;;;;;;23.90;9.35;;;8.40;99.90;;;8.72;86.38;103286.06;5071015;28;20088;-61
2022/01/22 01:02:01;;;;;;;22.98;9.75;;;8.50;99.90;;;8.49;86.79;103270.09;5069831;28;20079;-61
2022/01/22 01:04:35;;;;;;;25.27;9.43;;;8.40;99.90;;;8.61;86.79;103278.53;5071492;28;20106;-61
2022/01/22 01:07:05;;;;;;;25.13;9.82;;;8.50;99.90;;;8.61;87.03;103281.19;5071259;28;20516;-61
2022/01/22 01:09:36;;;;;;;20.42;9.65;;;8.40;99.90;;;8.62;87.12;103288.25;5071000;28;20048;-61
2022/01/22 01:12:08;;;;;;;25.98;9.20;;;8.40;99.90;;;8.62;87.19;103285.59;5069811;28;20068;-61
2022/01/22 01:14:42;;;;;;;24.23;10.30;;;8.40;99.90;;;8.67;87.28;103286.72;5069641;28;20049;-61
2022/01/22 01:17:24;;;;;;;32.45;9.55;;;8.40;99.90;;;8.62;87.28;103286.50;5071124;28;20037;-61
2022/01/22 01:33:52;;;;;;;19.67;8.48;;;8.40;99.90;;;8.71;88.03;103280.75;5070922;28;20450;-61
2022/01/22 01:36:22;;;;;;;28.02;8.60;;;8.40;99.90;;;8.67;87.52;103269.13;5073171;28;20060;-61
2022/01/22 01:38:54;;;;;;;21.05;9.02;;;8.50;99.90;;;8.57;87.84;103271.34;5073093;28;20064;-61
2022/01/22 01:41:30;;;;;;;24.60;8.73;;;8.40;99.90;;;8.60;87.75;103280.28;5074625;28;20048;-61
2022/01/22 01:43:58;;;;;;;21.48;8.23;;;8.40;99.90;;;8.75;87.13;103280.91;5073133;28;20398;-61
2022/01/22 01:46:47;;;;;;;25.13;8.60;;;8.60;99.90;;;8.65;86.68;103278.72;5074035;28;20071;-61
2022/01/22 01:49:16;;;;;;;20.45;8.10;;;8.50;99.90;;;8.58;87.10;103278.41;5072872;28;20060;-61
2022/01/22 01:51:47;;;;;;;26.67;9.07;;;8.40;99.90;;;8.68;86.98;103277.94;5073000;28;20454;-61
2022/01/22 01:54:30;;;;;;;21.35;9.35;;;8.50;99.90;;;8.65;86.80;103277.84;5073014;28;20045;-61
2022/01/22 01:59:50;;;;;;;19.95;8.77;;;8.40;99.90;;;8.51;86.89;103276.34;5073018;28;20451;-61
2022/01/22 02:02:34;;;;;;;23.88;10.10;;;8.40;99.90;;;8.64;87.02;103281.28;5073962;28;20124;-61
2022/01/22 02:05:02;;;;;;;26.20;10.32;;;8.40;99.90;;;8.53;86.60;103272.03;5072940;28;20458;-61
2022/01/22 02:07:37;;;;;;;24.52;10.93;;;8.40;99.90;;;8.57;87.37;103280.16;5072867;28;20052;-61
2022/01/22 02:10:15;;;;;;;28.58;10.60;;;8.40;99.90;;;8.70;86.47;103279.81;5073224;28;20053;-61
2022/01/22 02:24:19;;;;;;;18.20;8.82;;;8.70;99.90;;;9.13;85.25;103294.78;5072612;28;20048;-61
2022/01/22 02:26:49;;;;;;;21.30;8.85;;;8.90;99.90;;;9.03;85.17;103289.13;5072587;28;20048;-61
2022/01/22 02:29:31;;;;;;;21.92;8.73;;;8.80;99.90;;;8.87;86.08;103289.34;5073802;28;20056;-61
2022/01/22 02:32:54;;;;;;;28.80;8.82;;;8.70;99.90;;;8.91;85.85;103282.44;5073284;28;20119;-61
2022/01/22 02:35:27;;;;;;;24.70;9.05;;;8.70;99.90;;;9.12;85.32;103280.66;5073428;28;20482;-61
2022/01/22 02:38:01;;;;;;;22.58;8.73;;;8.90;99.90;;;9.12;85.12;103275.38;5073486;28;20064;-61
2022/01/22 02:40:35;;;;;;;20.85;9.30;;;8.90;99.90;;;9.24;85.11;103283.81;5072403;28;20071;-61
2022/01/22 02:43:04;;;;;;;22.45;8.27;;;9.00;99.90;;;9.18;84.81;103282.66;5073648;28;20094;-61
2022/01/22 02:45:51;;;;;;;17.50;7.40;;;9.00;99.90;;;9.28;84.23;103277.81;5072520;28;20055;-61
2022/01/22 02:48:19;;;;;;;21.95;8.25;;;9.10;99.90;;;9.16;84.89;103279.03;5072062;28;20441;-61
2022/01/22 02:50:48;;;;;;;19.08;7.75;;;9.00;99.90;;;9.21;84.51;103281.06;5073548;28;20129;-61
2022/01/22 02:53:17;;;;;;;18.42;7.53;;;9.00;99.90;;;9.25;84.27;103285.63;5072226;28;20102;-61
2022/01/22 02:55:46;;;;;;;25.83;7.97;;;9.00;99.90;;;9.23;83.94;103283.75;5071788;28;20069;-61
2022/01/22 02:58:16;;;;;;;19.60;8.15;;;9.00;99.90;;;9.22;84.37;103285.47;5071837;28;20455;-61
2022/01/22 03:00:45;;;;;;;22.07;8.50;;;9.00;99.90;;;8.61;84.83;103179.22;5071750;28;20044;-61
2022/01/22 03:03:14;;;;;;;20.92;8.07;;;8.90;99.90;;;9.13;84.79;103278.94;5071673;28;20764;-61
2022/01/22 03:05:42;;;;;;;16.95;7.45;;;9.00;99.90;;;9.11;85.58;103276.25;5073095;28;20048;-61
2022/01/22 03:08:13;;;;;;;22.98;8.50;;;8.90;99.90;;;9.18;84.93;103273.00;5072983;28;20147;-62
2022/01/22 03:10:46;;;;;;;15.32;6.78;;;9.00;99.90;;;9.37;84.73;103279.94;5072959;28;20052;-61
2022/01/22 03:13:46;;;;;;;18.90;7.15;;;9.00;99.90;;;9.16;85.47;103287.88;5072870;28;20048;-61
2022/01/22 03:16:14;;;;;;;19.75;7.18;;;9.00;99.90;;;9.35;84.99;103290.41;5071263;28;20059;-61
2022/01/22 03:18:51;;;;;;;21.58;7.55;;;9.10;99.90;;;9.14;85.11;103281.63;5071418;28;20052;-61
2022/01/22 03:21:39;;;;;;;16.52;7.07;;;9.00;99.90;;;9.26;84.97;103287.41;5072552;28;20053;-61
2022/01/22 03:29:43;;;;;;;21.10;6.18;;;9.20;99.90;;;9.43;84.04;103294.25;5072135;28;20470;-61
2022/01/22 03:32:12;;;;;;;21.75;7.75;;;9.20;99.90;;;9.40;84.51;103306.44;5070992;28;20406;-61
2022/01/22 03:34:48;;;;;;;19.95;7.13;;;9.20;99.90;;;9.37;84.66;103299.28;5070823;28;20040;-61
2022/01/22 03:37:17;;;;;;;17.80;7.30;;;9.20;99.90;;;9.34;84.89;103299.19;5070909;28;20405;-61
2022/01/22 03:39:45;;;;;;;22.23;8.00;;;9.10;99.90;;;9.28;85.44;103296.28;5070888;28;20402;-61
2022/01/22 03:42:15;;;;;;;25.67;7.78;;;9.10;99.90;;;9.35;85.71;103302.72;5070735;28;20040;-61
2022/01/22 03:44:44;;;;;;;25.10;7.68;;;9.10;99.90;;;9.17;86.64;103286.16;5070746;28;20045;-61
2022/01/22 03:47:12;;;;;;;19.00;8.02;;;9.00;99.90;;;9.35;86.79;103300.97;5072086;28;20087;-61
2022/01/22 03:49:41;;;;;;;20.42;7.93;;;9.10;99.90;;;9.35;86.72;103298.31;5070605;28;20106;-61
2022/01/22 03:52:12;;;;;;;19.20;7.05;;;9.00;99.90;;;9.10;87.71;103290.25;5070669;28;20041;-61
2022/01/22 03:54:41;;;;;;;27.42;8.35;;;8.90;99.90;;;9.10;87.20;103291.19;5070457;28;20072;-61
2022/01/22 03:57:10;;;;;;;23.17;7.88;;;8.90;99.90;;;9.21;87.10;103285.44;5070450;28;20537;-61
2022/01/22 03:59:47;;;;;;;29.92;8.25;;;9.00;99.90;;;9.23;87.18;103296.97;5070550;28;20110;-61
2022/01/22 04:05:08;;;;;;;25.17;7.90;;;9.10;99.90;;;9.46;85.99;103297.03;5070139;28;20433;-61
2022/01/22 04:08:07;;;;;;;22.10;8.48;;;9.30;99.90;;;9.19;86.87;103301.22;5070407;28;20139;-61
2022/01/22 04:10:36;;;;;;;20.75;7.82;;;9.10;99.90;;;9.33;86.70;103307.94;5071806;28;20055;-61
2022/01/22 04:13:07;;;;;;;24.90;7.88;;;9.10;99.90;;;9.33;86.62;103312.34;5070381;28;20049;-61
2022/01/22 04:15:39;;;;;;;18.52;7.78;;;9.10;99.90;;;9.44;86.26;103313.66;5071736;28;20045;-61
2022/01/22 04:26:40;;;;;;;14.40;6.47;;;9.10;99.90;;;9.34;85.14;103312.38;5071425;28;20072;-61
2022/01/22 04:29:08;;;;;;;21.10;6.35;;;9.10;99.90;;;9.17;85.37;103304.63;5071647;28;20048;-61
2022/01/22 04:31:39;;;;;;;15.83;6.37;;;9.00;99.90;;;9.27;84.45;103310.31;5070185;28;20135;-61
2022/01/22 04:34:08;;;;;;;13.30;5.85;;;9.10;99.90;;;9.27;83.73;103320.88;5071680;28;20048;-61
2022/01/22 04:36:36;;;;;;;13.15;5.05;;;9.10;99.90;;;9.06;84.07;103305.09;5071297;28;20521;-61
2022/01/22 04:39:05;;;;;;;13.55;5.55;;;8.90;99.90;;;9.38;82.96;103302.84;5070222;28;20098;-61
2022/01/22 04:41:33;;;;;;;12.98;5.32;;;9.10;99.90;;;9.29;82.37;103299.84;5071580;28;20135;-61
2022/01/22 04:44:04;;;;;;;12.50;5.32;;;9.10;99.90;;;9.51;81.47;103308.66;5071633;28;20107;-61
2022/01/22 04:46:53;;;;;;;;;;;9.20;99.90;;;9.47;80.60;103301.47;5070710;28;20052;-62
2022/01/22 04:52:38;;;;;;;14.57;5.15;;;9.20;99.90;;;9.07;81.31;103266.41;5053272;28;20397;-62
2022/01/22 04:55:08;;;;;;;13.65;6.20;;;9.10;99.90;;;9.11;82.41;103302.66;5087063;28;20214;-62
2022/01/22 04:57:40;;;;;;;16.77;5.65;;;8.90;99.90;;;9.24;82.11;103304.03;5071630;28;20496;-64
2022/01/22 05:00:12;;;;;;;10.70;5.25;;;9.00;99.90;;;9.11;82.82;103302.66;5087223;28;20068;-64
2022/01/22 05:02:59;;;;;;;13.85;5.78;;;8.90;99.90;;;9.29;82.34;103298.06;5071454;28;20529;-65
2022/01/22 05:06:07;;;;;;;10.25;5.25;;;9.00;99.90;;;9.27;83.12;103299.75;5048983;28;20132;-62
2022/01/22 05:08:44;;;;;;;13.20;5.20;;;9.10;99.90;;;9.44;82.53;103303.09;5048760;28;20068;-63
2022/01/22 05:11:18;;;;;;;13.30;5.43;;;9.20;99.90;;;9.39;82.21;103302.88;5065372;28;20069;-62
2022/01/22 05:13:48;;;;;;;13.98;5.78;;;9.20;99.90;;;9.35;82.37;103293.03;5073840;28;20141;-61
2022/01/22 05:16:16;;;;;;;12.00;5.75;;;9.20;99.90;;;9.52;82.04;103299.00;5075057;28;20041;-62
2022/01/22 05:18:51;;;;;;;15.02;5.78;;;9.20;99.90;;;9.60;82.30;103293.16;5073724;28;20055;-62
2022/01/22 05:21:24;;;;;;;15.43;5.05;;;9.30;99.90;;;9.70;82.41;103287.38;5073554;28;20479;-62
2022/01/22 05:23:56;;;;;;;14.30;5.78;;;9.40;99.90;;;9.50;83.15;103293.66;5073645;28;20048;-61
2022/01/22 05:26:54;;;;;;;12.85;5.78;;;9.30;99.90;;;9.58;83.23;103289.56;5073609;28;20040;-62
2022/01/22 05:29:56;;;;;;;18.55;6.18;;;9.30;99.90;;;9.59;83.43;103291.38;5073507;28;20075;-62
2022/01/22 05:32:54;;;;;;;19.98;7.43;;;9.30;99.90;;;9.68;83.67;103290.81;5074897;28;20153;-62
2022/01/22 05:38:38;;;;;;;22.55;7.78;;;9.30;99.90;;;9.46;85.40;103294.38;5073385;28;20102;-62
2022/01/22 05:41:06;;;;;;;15.40;7.30;;;9.20;99.90;;;9.44;85.49;103290.78;5073274;28;20052;-61
2022/01/22 05:43:34;;;;;;;16.13;7.85;;;9.20;99.90;;;9.50;86.27;103295.41;5074555;28;20045;-62
2022/01/22 05:46:03;;;;;;;20.48;8.10;;;9.20;99.90;;;9.52;86.00;103306.94;5073489;28;20098;-62
2022/01/22 05:48:31;;;;;;;21.33;8.98;;;9.30;99.90;;;9.45;86.75;103282.00;5074583;28;20044;-62
2022/01/22 05:51:02;;;;;;;20.42;9.40;;;9.20;99.90;;;9.26;87.13;103289.13;5073116;28;20040;-62
2022/01/22 05:53:46;;;;;;;26.00;9.02;;;9.10;99.90;;;9.21;87.62;103294.25;5072850;28;20056;-62
2022/01/22 06:01:48;;;;;;;24.42;9.27;;;9.10;99.90;;;9.34;87.64;103309.75;5072929;28;20387;-61
2022/01/22 06:04:20;;;;;;;25.33;9.25;;;9.20;99.90;;;9.32;87.83;103316.72;5072948;28;20414;-61
2022/01/22 06:06:55;;;;;;;22.60;10.50;;;9.10;99.90;;;9.41;87.44;103314.41;5072906;28;20044;-61
2022/01/22 06:09:24;;;;;;;25.17;10.50;;;9.20;99.90;;;9.36;88.01;103320.38;5072841;28;20060;-61
2022/01/22 06:11:57;;;;;;;27.77;10.93;;;9.10;99.90;;;9.45;87.49;103320.72;5072889;28;20048;-61
2022/01/22 06:14:35;;;;;;;26.30;9.50;;;9.20;99.90;;;9.39;87.21;103315.22;5072716;28;20433;-61
2022/01/22 06:17:05;;;;;;;27.63;10.23;;;9.20;99.90;;;9.33;87.56;103318.50;5072730;28;20088;-61
2022/01/22 06:19:53;;;;;;;24.40;10.63;;;9.10;99.90;;;8.85;88.04;103224.13;5072743;28;20048;-62
2022/01/22 06:22:23;;;;;;;21.17;9.57;;;9.10;99.90;;;9.26;87.57;103319.09;5071412;28;20102;-61
2022/01/22 06:24:51;;;;;;;20.15;9.27;;;9.00;99.90;;;9.30;87.48;103323.66;5072782;28;20079;-61
2022/01/22 06:27:21;;;;;;;24.88;9.70;;;9.00;99.90;;;9.20;87.52;103318.84;5073804;28;20044;-61
2022/01/22 06:29:50;;;;;;;24.95;9.63;;;9.00;99.90;;;9.30;87.64;103326.31;5072402;28;20082;-61
2022/01/22 06:32:19;;;;;;;17.88;9.10;;;9.10;99.90;;;9.27;86.67;103312.97;5072019;28;20044;-61
2022/01/22 06:34:47;;;;;;;18.65;7.88;;;9.10;99.90;;;9.24;86.64;103326.06;5072353;28;20102;-61
2022/01/22 06:37:16;;;;;;;18.20;8.32;;;9.00;99.90;;;9.36;86.54;103329.19;5072209;28;20052;-61
2022/01/22 06:43:24;;;;;;;19.23;8.68;;;9.00;99.90;;;9.15;86.40;103325.69;5073587;28;20052;-61
2022/01/22 06:46:08;;;;;;;22.17;9.15;;;8.90;99.90;;;9.07;86.47;103322.75;5072133;28;20102;-61
2022/01/22 06:48:45;;;;;;;22.70;9.77;;;8.90;99.90;;;9.13;87.03;103327.38;5071781;28;20152;-61
2022/01/22 06:51:39;;;;;;;21.75;8.55;;;8.90;99.90;;;9.05;87.25;103328.78;5064606;28;20147;-61
2022/01/22 06:54:10;;;;;;;19.75;8.82;;;8.90;99.90;;;9.07;87.52;103337.69;5088837;28;20048;-61
2022/01/22 06:56:39;;;;;;;23.27;8.82;;;8.90;99.90;;;9.06;87.48;103333.22;5073309;28;20106;-61
2022/01/22 06:59:13;;;;;;;19.02;9.70;;;8.90;99.90;;;9.12;87.52;103343.16;5071753;28;20089;-61
2022/01/22 07:01:44;;;;;;;15.27;9.35;;;8.90;99.90;;;9.14;87.17;103342.38;5071651;28;20524;-61
2022/01/22 07:04:23;;;;;;;28.17;11.10;;;8.90;99.90;;;9.22;87.25;103348.88;5071532;28;20056;-61
2022/01/22 07:07:12;;;;;;;20.25;9.52;;;8.90;99.90;;;9.40;86.34;103349.63;5088378;28;20044;-61
2022/01/22 07:09:41;;;;;;;17.42;8.57;;;9.10;99.90;;;9.36;85.99;103347.69;5071556;28;20347;-61
2022/01/22 07:12:12;;;;;;;20.92;8.90;;;9.20;99.90;;;9.17;86.23;103346.88;5071067;28;20155;-61
2022/01/22 07:14:45;;;;;;;18.25;9.10;;;9.00;99.90;;;9.17;86.60;103342.50;5071396;28;20072;-61
2022/01/22 07:17:15;;;;;;;18.25;8.40;;;9.00;99.90;;;9.23;86.55;103340.13;5071302;28;20056;-61
2022/01/22 07:19:51;;;;;;;17.77;8.65;;;9.00;99.90;;;9.25;86.23;103338.44;5071269;28;20541;-61
2022/01/22 07:22:37;;;;;;;24.15;9.25;;;9.00;99.90;;;9.31;86.27;103359.78;5072027;28;20563;-61
2022/01/22 07:25:31;;;;;;;18.05;8.98;;;9.10;99.90;;;9.22;86.82;103345.31;5071320;28;20056;-61
2022/01/22 07:28:10;;;;;;;20.85;8.88;;;9.00;99.90;;;9.28;86.96;103345.56;5071163;28;20056;-61
2022/01/22 07:30:41;;;;;;;15.68;8.55;;;9.00;99.90;;;9.39;86.17;103347.81;5071219;28;20052;-61
2022/01/22 07:33:09;;;;;;;13.18;7.60;;;9.10;99.90;;;9.29;86.30;103347.38;5070726;28;20040;-61
2022/01/22 07:35:38;;;;;;;18.48;8.05;;;9.10;99.90;;;9.28;87.00;103338.56;5071984;28;20505;-61
2022/01/22 07:38:10;;;;;;;15.93;8.00;;;9.10;99.90;;;9.09;86.60;103302.59;5070739;28;20060;-61
2022/01/22 07:40:39;;;;;;;16.20;7.88;;;9.00;99.90;;;9.24;86.84;103341.91;5087985;28;20045;-61
2022/01/22 07:43:28;;;;;;;25.63;8.25;;;9.00;99.90;;;9.34;86.46;103338.81;5072111;28;20061;-61
2022/01/22 07:46:16;;;;;;;18.08;8.55;;;9.00;99.90;;;9.34;86.33;103345.81;5072373;28;20097;-61
2022/01/22 07:48:51;;;;;;;14.60;7.88;;;9.10;99.90;;;9.29;86.39;103342.97;5070946;28;20079;-61
2022/01/22 07:51:19;;;;;;;19.08;8.38;;;9.10;99.90;;;9.26;87.22;103339.31;5072297;28;20079;-61
2022/01/22 07:53:47;;;;;;;19.73;8.35;;;9.00;99.90;;;9.41;86.38;103340.84;5070990;28;20517;-61
2022/01/22 07:56:22;;;;;;;16.13;8.27;;;9.10;99.90;;;9.37;86.32;103335.41;5071052;28;20055;-61
2022/01/22 07:58:51;;;;;;;21.33;8.25;;;9.10;99.90;;;9.32;86.52;103334.28;5070287;28;20110;-61
2022/01/22 08:01:22;;;;;;;17.90;7.88;;;9.10;99.90;;;9.34;86.36;103335.25;5070560;28;20044;-62
2022/01/22 08:04:14;;;;;;;24.13;8.00;;;9.10;99.90;;;9.33;86.50;103321.13;5068509;28;20068;-61
2022/01/22 08:07:03;;;;;;;16.50;8.32;;;9.10;99.90;;;9.31;86.19;103327.22;5071971;28;20158;-61
2022/01/22 08:09:55;;;;;;;16.90;8.50;;;9.10;99.90;;;9.23;86.42;103302.25;5061321;28;20417;-61
2022/01/22 08:12:33;;;;;;;19.80;8.32;;;9.10;99.90;;;9.24;86.15;103320.78;5070497;28;20045;-62
2022/01/22 08:15:10;;;;;;;17.50;9.40;;;9.10;99.90;;;9.24;86.20;103320.78;5070391;28;20048;-62
2022/01/22 08:17:40;;;;;;;15.45;8.30;;;9.10;99.90;;;9.22;86.28;103317.19;5070328;28;20048;-62
2022/01/22 08:20:12;;;;;;;17.20;8.73;;;9.00;99.90;;;9.23;86.34;103319.00;5070360;28;20083;-62
2022/01/22 08:22:53;;;;;;;14.25;8.57;;;9.00;99.90;;;9.22;86.33;103316.25;5071734;28;20048;-62
2022/01/22 08:25:45;;;;;;;21.00;9.75;;;9.00;99.90;;;9.19;86.80;103322.34;5071721;28;20063;-61
2022/01/22 08:31:17;;;;;;;18.15;10.32;;;9.00;99.90;;;9.32;86.39;103326.38;5069921;28;20056;-61
2022/01/22 08:36:33;;;;;;;15.40;9.38;;;9.10;99.90;;;9.34;86.53;103325.59;5069769;28;20072;-62
2022/01/22 08:39:03;;;;;;;19.73;10.43;;;9.20;99.90;;;9.28;86.73;103338.56;5069748;28;20049;-61
2022/01/22 08:41:32;;;;;;;21.38;10.38;;;9.10;99.90;;;9.25;87.08;103334.91;5070363;28;20059;-61
2022/01/22 08:44:01;;;;;;;18.70;9.90;;;9.10;99.90;;;9.33;86.85;103346.66;5087060;28;20048;-62
2022/01/22 08:46:30;;;;;;;17.52;9.93;;;9.10;99.90;;;9.29;87.33;103335.06;5074268;28;20431;-62
2022/01/22 08:49:00;;;;;;;19.20;9.32;;;9.10;99.90;;;9.18;86.69;103339.00;5073957;28;20506;-61
2022/01/22 08:51:32;;;;;;;20.60;9.93;;;9.00;99.90;;;9.10;87.60;103345.72;5074215;28;20040;-62
2022/01/22 08:54:01;;;;;;;15.02;10.27;;;8.90;99.90;;;8.99;87.57;103328.53;5074436;28;20068;-62
2022/01/22 08:56:48;;;;;;;18.15;10.50;;;8.90;99.90;;;8.55;87.57;103276.56;5073872;28;20122;-62
2022/01/22 08:59:17;;;;;;;16.85;10.77;;;8.80;99.90;;;8.84;87.97;103359.56;5090408;28;20147;-62
2022/01/22 09:01:48;;;;;;;15.35;9.80;;;8.70;99.90;;;8.68;87.81;103280.59;5091012;28;20075;-62
2022/01/22 09:04:52;;;;;;;21.15;11.15;;;8.80;99.90;;;9.00;87.40;103333.88;5067376;28;20051;-62
2022/01/22 09:07:43;;;;;;;21.80;11.25;;;8.90;99.90;;;9.21;87.28;103362.91;5090800;28;20056;-62
2022/01/22 09:10:12;;;;;;;21.77;10.95;;;9.00;99.90;;;9.02;87.01;103361.25;5075305;28;20072;-62
2022/01/22 09:12:40;;;;;;;20.10;11.45;;;9.00;99.90;;;9.26;87.43;103355.16;5075232;28;20550;-62
2022/01/22 09:15:24;;;;;;;19.95;10.93;;;9.00;99.90;;;9.15;87.00;103330.06;5090784;28;20059;-62
2022/01/22 09:17:54;;;;;;;19.95;11.38;;;9.10;99.90;;;9.41;86.83;103356.69;5073643;28;20045;-61
2022/01/22 09:23:13;;;;;;;18.85;10.93;;;9.10;99.90;;;9.36;87.01;103381.13;5073265;28;20052;-61
2022/01/22 09:25:43;;;;;;;19.75;11.50;;;9.10;99.90;;;9.15;86.33;103346.81;5073701;28;20094;-62
2022/01/22 09:28:13;;;;;;;18.42;11.02;;;9.10;99.90;;;9.02;86.78;103355.97;5073627;28;20440;-62
2022/01/22 09:30:46;;;;;;;23.05;12.05;;;9.00;99.90;;;9.06;87.63;103383.38;5073638;28;20469;-61
2022/01/22 09:33:15;;;;;;;24.20;12.27;;;8.90;99.90;;;9.11;87.69;103379.22;5074081;28;20079;-62
2022/01/22 09:36:08;;;;;;;29.73;12.90;;;8.90;99.90;;;9.25;87.20;103385.97;5057661;28;20048;-65
2022/01/22 09:38:56;;;;;;;28.73;12.93;;;9.00;99.90;;;9.04;87.24;103356.94;5074365;28;20833;-63
2022/01/22 09:41:50;;;;;;;22.33;13.25;;;9.00;99.90;;;9.24;87.27;103389.44;5073322;28;20532;-61
2022/01/22 09:44:59;;;;;;;27.23;13.00;;;9.00;99.90;;;9.25;88.15;103396.53;5090032;28;20060;-61
2022/01/22 09:47:49;;;;;;;23.23;13.15;;;9.00;99.90;;;9.09;87.84;103389.72;5074428;28;20482;-61
2022/01/22 09:50:33;;;;;;;21.52;12.13;;;9.00;99.90;;;9.23;87.57;103406.13;5089775;28;20060;-59
2022/01/22 09:53:35;;;;;;;20.30;11.57;;;9.00;99.90;;;9.29;87.56;103411.66;5072789;28;20047;-59
2022/01/22 09:56:34;;;;;;;25.98;12.88;;;9.10;99.90;;;9.40;87.10;103418.31;5072550;28;20155;-60
2022/01/22 09:59:16;;;;;;;19.17;12.18;;;9.20;99.90;;;9.41;87.20;103409.53;5072885;28;20059;-61
2022/01/22 10:02:16;;;;;;;20.77;11.80;;;9.20;99.90;;;9.40;86.94;103418.31;5072924;28;20052;-60
2022/01/22 10:04:48;;;;;;;19.23;12.38;;;9.20;99.90;;;9.39;86.36;103408.56;5089346;28;20494;-60
2022/01/22 10:07:55;;;;;;;22.02;11.45;;;9.20;99.90;;;9.60;85.94;103412.06;5071606;28;20044;-60
2022/01/22 10:10:59;;;;;;;21.52;11.93;;;9.30;99.90;;;9.55;85.81;103418.00;5054736;28;20045;-60
2022/01/22 10:13:58;;;;;;;24.80;11.82;;;9.30;99.90;;;9.57;85.61;103408.41;5057364;28;20441;-60
2022/01/22 10:16:29;;;;;;;20.92;11.73;;;9.30;99.90;;;9.67;85.46;103403.56;5073734;28;20072;-60
2022/01/22 10:19:16;;;;;;;20.52;11.95;;;9.40;99.90;;;9.70;85.13;103402.75;5074214;28;20041;-60
2022/01/22 10:21:48;;;;;;;19.00;11.40;;;9.50;99.90;;;9.88;84.86;103417.63;5071892;28;20060;-60
2022/01/22 10:24:26;;;;;;;30.85;12.60;;;9.60;99.90;;;9.87;85.06;103418.44;5073717;28;20076;-60
2022/01/22 10:27:26;;;;;;;22.00;12.27;;;9.70;99.90;;;10.03;84.18;103414.66;5073951;28;20083;-61
2022/01/22 10:29:58;;;;;;;24.65;12.18;;;9.80;99.90;;;9.96;84.44;103410.91;5073546;28;20056;-60
2022/01/22 10:32:38;;;;;;;18.92;11.18;;;9.80;99.90;;;9.99;84.06;103416.28;5074039;28;20056;-61
2022/01/22 10:35:28;;;;;;;18.60;11.48;;;9.80;99.90;;;9.68;85.17;103417.66;5073270;28;20086;-60
2022/01/22 10:38:40;;;;;;;21.85;12.15;;;9.60;99.90;;;9.77;85.12;103424.25;5073289;28;20055;-61
2022/01/22 10:41:09;;;;;;;25.48;12.90;;;9.50;99.90;;;9.72;85.38;103423.13;5073634;28;20048;-61
2022/01/22 10:43:43;;;;;;;22.95;11.75;;;9.50;99.90;;;9.63;85.19;103414.84;5073162;28;20045;-60
2022/01/22 10:46:20;;;;;;;24.67;13.10;;;9.40;99.90;;;9.80;84.98;103421.69;5073217;28;20146;-60
2022/01/22 10:49:00;;;;;;;22.98;14.18;;;9.50;99.90;;;9.78;84.47;103402.25;5073377;28;20458;-60
2022/01/22 10:51:30;;;;;;;26.05;14.68;;;9.70;99.90;;;9.91;84.61;103416.84;5073202;28;20157;-60
2022/01/22 10:54:01;;;;;;;21.42;13.50;;;9.70;99.90;;;9.67;84.78;103414.13;5073065;28;20156;-60
2022/01/22 10:56:32;;;;;;;19.13;12.32;;;9.60;99.90;;;9.51;84.91;103448.69;5073400;28;20431;-60
2022/01/22 10:59:06;;;;;;;26.92;13.75;;;9.40;99.90;;;9.66;85.03;103416.69;5072975;28;20040;-60
2022/01/22 11:01:52;;;;;;;25.00;13.30;;;9.40;99.90;;;9.67;83.57;103402.66;5089088;28;20449;-59
2022/01/22 11:04:23;;;;;;;19.70;11.70;;;9.50;99.90;;;9.62;83.19;103422.72;5073262;28;20143;-60
2022/01/22 11:06:55;;;;;;;22.40;12.63;;;9.50;99.90;;;9.70;83.72;103419.53;5071070;28;20511;-61
2022/01/22 11:09:44;;;;;;;22.50;12.80;;;9.50;99.90;;;9.53;83.77;103372.13;5072677;28;20151;-62
2022/01/22 11:12:13;;;;;;;24.15;13.10;;;9.50;99.90;;;9.89;83.36;103416.78;5072568;28;20052;-60
2022/01/22 11:14:44;;;;;;;28.08;14.45;;;9.70;99.90;;;9.98;83.17;103413.59;5072451;28;20079;-60
2022/01/22 11:17:14;;;;;;;24.77;13.65;;;9.80;99.90;;;9.96;83.38;103418.84;5072911;28;20379;-59
2022/01/22 11:19:47;;;;;;;26.23;14.05;;;9.80;99.90;;;9.77;83.59;103411.03;5088210;28;20053;-60
2022/01/22 11:22:17;;;;;;;23.05;13.75;;;9.70;99.90;;;9.60;84.13;103401.50;5072187;28;20053;-60
2022/01/22 11:24:47;;;;;;;;;;;9.50;99.90;;;9.50;84.74;103380.84;5072694;28;20105;-62
2022/01/22 11:27:18;;;;;;;23.75;15.32;;;9.50;99.90;;;9.44;85.31;103408.75;5072511;28;19920;-61
2022/01/22 11:29:52;;;;;;;32.90;14.55;;;9.30;99.90;;;9.29;85.45;103419.56;5071171;28;20048;-61
2022/01/22 11:32:25;;;;;;;23.92;16.75;;;9.20;99.90;;;9.16;86.42;103430.47;5072420;28;20379;-61
2022/01/22 11:34:59;;;;;;;28.45;17.00;;;9.00;99.90;;;9.15;86.63;103436.59;5072065;28;20049;-61
2022/01/22 11:37:35;;;;;;;33.13;19.40;;;9.00;99.90;;;9.20;87.16;103434.13;5072375;28;20048;-61
2022/01/22 11:40:12;;;;;;;32.53;18.48;;;9.00;99.90;;;9.20;87.02;103437.69;5071894;28;20090;-61
2022/01/22 11:42:59;;;;;;;27.20;17.77;;;9.00;99.90;;;9.26;86.46;103431.75;5070642;28;20106;-60
2022/01/22 11:45:34;;;;;;;29.55;16.95;;;9.10;99.90;;;9.22;86.03;103435.09;5072167;28;20048;-61
2022/01/22 11:48:15;;;;;;;29.40;17.80;;;9.10;99.90;;;9.17;86.73;103424.38;5071825;28;20388;-62
2022/01/22 11:50:45;;;;;;;24.48;16.75;;;9.00;99.90;;;8.87;87.48;103418.66;5070792;28;20071;-61
2022/01/22 11:53:26;;;;;;;28.42;17.40;;;8.80;99.90;;;8.95;87.85;103425.19;5071893;28;20102;-61
2022/01/22 11:56:23;;;;;;;;;;;8.80;99.90;;;8.95;86.98;103421.63;5072308;28;20049;-60
2022/01/22 11:59:34;;;;;;;30.58;17.95;;;8.80;99.90;;;8.99;87.25;103413.91;5071943;28;19986;-61
2022/01/22 12:02:13;;;;;;;25.65;20.10;;;8.80;99.90;;;8.89;87.73;103424.91;5070360;28;20138;-60
2022/01/22 12:04:52;;;;;;;29.13;20.50;;;8.70;99.90;;;8.98;87.84;103419.16;5071697;28;20413;-61